^^
Saratoga-Weather Station Historical Data
Daily Summary for May 12, 2020 Units:  Both    English   Metric
Daily Weekly Monthly Yearly Custom
  High: Low: Average:
Temperature: 75.9 °F /  24.4 °C 54.1 °F /  12.3 °C 64.9 °F /  18.3 °C
Dew Point: 63.9 °F /  17.7 °C 52.2 °F /  11.2 °C 58.3 °F /  14.6 °C
Humidity: 95% 61% 80%
Wind Speed: 19.9mph /  32km/h - 2.4mph /  3.8km/h
Wind Gust: 24mph /  38.6km/h - -
Wind- - SSW
Pressure: 29.8 in /  1008.8 hPa 29.6 in /  1002.7 hPa -
Precipitation: 0.71 in /  18.0 mm    
Historical Graphs
 
 
Tabular Data for May 12, 2020
Time Temperature Dew Point Pressure Wind Wind Speed Wind Gust Humidity Rainfall Rate (Hourly) solar
00:03 58.3 °F /  14.6 °C 53.8 °F /  12.1 °C 29.7in /  1007.1hPa Calm     85% 0in /  0.0mm 0 W/m2
00:08 57.9 °F /  14.4 °C 53.8 °F /  12.1 °C 29.7in /  1007.1hPa Calm     86% 0in /  0.0mm 0 W/m2
00:13 57.7 °F /  14.3 °C 53.6 °F /  12 °C 29.7in /  1007.1hPa Calm     86% 0in /  0.0mm 0 W/m2
00:18 57.6 °F /  14.2 °C 53.8 °F /  12.1 °C 29.7in /  1007.1hPa Calm   1mph /  1.6km/h 87% 0in /  0.0mm 0 W/m2
00:23 57.4 °F /  14.1 °C 53.6 °F /  12 °C 29.7in /  1007.1hPa Calm     87% 0in /  0.0mm 0 W/m2
01:14 56.3 °F /  13.5 °C 53.4 °F /  11.9 °C 29.7in /  1007.1hPa Calm     90% 0in /  0.0mm 0 W/m2
01:29 56.1 °F /  13.4 °C 53.6 °F /  12 °C 29.7in /  1007.1hPa Calm     91% 0in /  0.0mm 0 W/m2
01:39 56.1 °F /  13.4 °C 53.6 °F /  12 °C 29.7in /  1007.1hPa Calm     91% 0in /  0.0mm 0 W/m2
02:04 55.9 °F /  13.3 °C 53.4 °F /  11.9 °C 29.7in /  1006.8hPa Calm     91% 0in /  0.0mm 0 W/m2
02:54 55.2 °F /  12.9 °C 52.9 °F /  11.6 °C 29.7in /  1006.4hPa Calm     92% 0in /  0.0mm 0 W/m2
03:34 55.6 °F /  13.1 °C 53.2 °F /  11.8 °C 29.7in /  1005.8hPa Calm     92% 0in /  0.0mm 0 W/m2
03:49 55.9 °F /  13.3 °C 53.6 °F /  12 °C 29.7in /  1005.4hPa ESE 0.9mph /  1.4km/h 1mph /  1.6km/h 92% 0in /  0.0mm 0 W/m2
04:25 55.2 °F /  12.9 °C 52.9 °F /  11.6 °C 29.7in /  1005.8hPa Calm     92% 0in /  0.0mm 0 W/m2
04:35 54.9 °F /  12.7 °C 52.5 °F /  11.4 °C 29.7in /  1005.8hPa Calm     92% 0in /  0.0mm 0 W/m2
04:54 54.1 °F /  12.3 °C 52.2 °F /  11.2 °C 29.7in /  1005.8hPa Calm     93% 0in /  0.0mm 0 W/m2
05:14 54.1 °F /  12.3 °C 52.5 °F /  11.4 °C 29.7in /  1005.8hPa Calm   1mph /  1.6km/h 94% 0in /  0.0mm 0 W/m2
05:50 54.7 °F /  12.6 °C 53.1 °F /  11.7 °C 29.7in /  1005.4hPa Calm     94% 0in /  0.0mm 16 W/m2
05:55 54.7 °F /  12.6 °C 52.7 °F /  11.5 °C 29.7in /  1005.4hPa Calm     93% 0in /  0.0mm 18 W/m2
06:00 54.7 °F /  12.6 °C 52.7 °F /  11.5 °C 29.7in /  1005.4hPa Calm     93% 0in /  0.0mm 23 W/m2
06:05 54.7 °F /  12.6 °C 52.7 °F /  11.5 °C 29.7in /  1005.4hPa Calm     93% 0in /  0.0mm 30 W/m2
06:14 54.7 °F /  12.6 °C 53.1 °F /  11.7 °C 29.7in /  1005.4hPa Calm     94% 0in /  0.0mm 49 W/m2
06:20 54.9 °F /  12.7 °C 53.2 °F /  11.8 °C 29.7in /  1005.4hPa Calm   2mph /  3.2km/h 94% 0in /  0.0mm 58 W/m2
06:25 55.2 °F /  12.9 °C 53.6 °F /  12 °C 29.7in /  1005.4hPa East 0.9mph /  1.4km/h 3mph /  4.8km/h 94% 0in /  0.0mm 67 W/m2
06:36 56.1 °F /  13.4 °C 54.1 °F /  12.3 °C 29.7in /  1005.4hPa Calm   3mph /  4.8km/h 93% 0in /  0.0mm 83 W/m2
06:41 56.5 °F /  13.6 °C 54.5 °F /  12.5 °C 29.7in /  1005.1hPa Calm     93% 0in /  0.0mm 83 W/m2
06:47 56.8 °F /  13.8 °C 54.5 °F /  12.5 °C 29.7in /  1005.4hPa East 0.9mph /  1.4km/h 2mph /  3.2km/h 92% 0in /  0.0mm 86 W/m2
06:52 57 °F /  13.9 °C 54.7 °F /  12.6 °C 29.7in /  1005.4hPa ESE 2mph /  3.2km/h 4mph /  6.4km/h 92% 0in /  0.0mm 90 W/m2
06:57 57.4 °F /  14.1 °C 54.9 °F /  12.7 °C 29.7in /  1005.4hPa ESE 2mph /  3.2km/h 2mph /  3.2km/h 91% 0in /  0.0mm 88 W/m2
07:02 57.6 °F /  14.2 °C 55 °F /  12.8 °C 29.7in /  1005.4hPa Calm   1mph /  1.6km/h 91% 0in /  0.0mm 90 W/m2
07:07 57.7 °F /  14.3 °C 54.9 °F /  12.7 °C 29.7in /  1005.4hPa East 2.9mph /  4.7km/h 3mph /  4.8km/h 90% 0in /  0.0mm 84 W/m2
07:12 57.9 °F /  14.4 °C 55 °F /  12.8 °C 29.7in /  1005.4hPa Calm   1mph /  1.6km/h 90% 0in /  0.0mm 83 W/m2
07:17 57.9 °F /  14.4 °C 55 °F /  12.8 °C 29.7in /  1005.4hPa SSE 0.9mph /  1.4km/h 4mph /  6.4km/h 90% 0in /  0.0mm 77 W/m2
07:22 58.1 °F /  14.5 °C 54.9 °F /  12.7 °C 29.7in /  1005.4hPa Calm   1mph /  1.6km/h 89% 0in /  0.0mm 70 W/m2
07:27 58.3 °F /  14.6 °C 55 °F /  12.8 °C 29.7in /  1005.4hPa NNE 0.9mph /  1.4km/h 3mph /  4.8km/h 89% 0in /  0.0mm 86 W/m2
07:32 58.3 °F /  14.6 °C 55 °F /  12.8 °C 29.7in /  1005.4hPa Calm   1mph /  1.6km/h 89% 0in /  0.0mm 128 W/m2
07:37 58.5 °F /  14.7 °C 55.2 °F /  12.9 °C 29.7in /  1005.4hPa East 0.9mph /  1.4km/h 3mph /  4.8km/h 89% 0in /  0.0mm 185 W/m2
07:42 58.8 °F /  14.9 °C 55.6 °F /  13.1 °C 29.7in /  1005.4hPa ESE 0.9mph /  1.4km/h 2mph /  3.2km/h 89% 0in /  0.0mm 169 W/m2
07:47 59.2 °F /  15.1 °C 55.6 °F /  13.1 °C 29.7in /  1005.4hPa East 2mph /  3.2km/h 5mph /  8km/h 88% 0in /  0.0mm 151 W/m2
07:52 59.4 °F /  15.2 °C 55.8 °F /  13.2 °C 29.7in /  1005.4hPa ESE 0.9mph /  1.4km/h 5mph /  8km/h 88% 0in /  0.0mm 190 W/m2
07:57 59.7 °F /  15.4 °C 56.1 °F /  13.4 °C 29.7in /  1005.4hPa NE 0.9mph /  1.4km/h 2mph /  3.2km/h 88% 0in /  0.0mm 265 W/m2
08:02 60.1 °F /  15.6 °C 56.1 °F /  13.4 °C 29.7in /  1005.4hPa Calm   5mph /  8km/h 87% 0in /  0.0mm 299 W/m2
08:07 60.4 °F /  15.8 °C 56.3 °F /  13.5 °C 29.7in /  1005.1hPa ENE 2.9mph /  4.7km/h 4mph /  6.4km/h 86% 0in /  0.0mm 279 W/m2
08:12 61 °F /  16.1 °C 56.5 °F /  13.6 °C 29.7in /  1005.1hPa ENE 0.9mph /  1.4km/h 3mph /  4.8km/h 85% 0in /  0.0mm 265 W/m2
08:17 61.2 °F /  16.2 °C 56.7 °F /  13.7 °C 29.7in /  1005.1hPa NE 0.9mph /  1.4km/h 5mph /  8km/h 85% 0in /  0.0mm 202 W/m2
08:22 61.2 °F /  16.2 °C 56.3 °F /  13.5 °C 29.7in /  1005.1hPa NNE 0.9mph /  1.4km/h 1mph /  1.6km/h 84% 0in /  0.0mm 258 W/m2
08:27 61.2 °F /  16.2 °C 56.3 °F /  13.5 °C 29.7in /  1005.1hPa NE 0.9mph /  1.4km/h 5mph /  8km/h 84% 0in /  0.0mm 257 W/m2
08:32 61.3 °F /  16.3 °C 56.5 °F /  13.6 °C 29.7in /  1005.1hPa North 0.9mph /  1.4km/h 2mph /  3.2km/h 84% 0in /  0.0mm 269 W/m2
08:37 61.5 °F /  16.4 °C 56.7 °F /  13.7 °C 29.7in /  1005.1hPa NE 4mph /  6.4km/h 5mph /  8km/h 84% 0in /  0.0mm 287 W/m2
08:42 61.9 °F /  16.6 °C 56.7 °F /  13.7 °C 29.7in /  1005.1hPa ENE 0.9mph /  1.4km/h 1mph /  1.6km/h 83% 0in /  0.0mm 287 W/m2
08:47 62.2 °F /  16.8 °C 57 °F /  13.9 °C 29.7in /  1005.1hPa North 2mph /  3.2km/h 5mph /  8km/h 83% 0in /  0.0mm 332 W/m2
08:52 62.8 °F /  17.1 °C 57.6 °F /  14.2 °C 29.7in /  1005.1hPa East 2mph /  3.2km/h 2mph /  3.2km/h 83% 0in /  0.0mm 411 W/m2
08:57 63.3 °F /  17.4 °C 57.7 °F /  14.3 °C 29.7in /  1005.1hPa Calm   1mph /  1.6km/h 82% 0in /  0.0mm 459 W/m2
09:02 64 °F /  17.8 °C 58.1 °F /  14.5 °C 29.7in /  1004.7hPa ENE 0.9mph /  1.4km/h 3mph /  4.8km/h 81% 0in /  0.0mm 504 W/m2
09:07 64.8 °F /  18.2 °C 58.5 °F /  14.7 °C 29.7in /  1004.7hPa East 0.9mph /  1.4km/h 4mph /  6.4km/h 80% 0in /  0.0mm 448 W/m2
09:12 65.1 °F /  18.4 °C 58.1 °F /  14.5 °C 29.7in /  1004.7hPa NE 0.9mph /  1.4km/h 2mph /  3.2km/h 78% 0in /  0.0mm 355 W/m2
09:17 65.1 °F /  18.4 °C 57.4 °F /  14.1 °C 29.7in /  1004.7hPa North 0.9mph /  1.4km/h 2mph /  3.2km/h 76% 0in /  0.0mm 318 W/m2
09:22 65.1 °F /  18.4 °C 58.1 °F /  14.5 °C 29.7in /  1004.7hPa East 2.9mph /  4.7km/h 3mph /  4.8km/h 78% 0in /  0.0mm 308 W/m2
09:27 65.5 °F /  18.6 °C 58.1 °F /  14.5 °C 29.7in /  1004.7hPa ENE 2.9mph /  4.7km/h 4mph /  6.4km/h 77% 0in /  0.0mm 417 W/m2
09:32 65.8 °F /  18.8 °C 58.5 °F /  14.7 °C 29.7in /  1004.7hPa SE 4mph /  6.4km/h 6mph /  9.7km/h 77% 0in /  0.0mm 408 W/m2
09:37 66 °F /  18.9 °C 58.6 °F /  14.8 °C 29.7in /  1004.7hPa ESE 0.9mph /  1.4km/h 5mph /  8km/h 77% 0in /  0.0mm 348 W/m2
09:42 66.2 °F /  19 °C 58.5 °F /  14.7 °C 29.7in /  1004.7hPa ESE 0.9mph /  1.4km/h 4mph /  6.4km/h 76% 0in /  0.0mm 315 W/m2
09:47 66.4 °F /  19.1 °C 58.6 °F /  14.8 °C 29.7in /  1004.7hPa Calm   5mph /  8km/h 76% 0in /  0.0mm 234 W/m2
09:52 66.4 °F /  19.1 °C 58.3 °F /  14.6 °C 29.7in /  1004.7hPa South 2mph /  3.2km/h 7mph /  11.3km/h 75% 0in /  0.0mm 160 W/m2
09:57 66 °F /  18.9 °C 58.3 °F /  14.6 °C 29.7in /  1004.7hPa ESE 0.9mph /  1.4km/h 1mph /  1.6km/h 76% 0in /  0.0mm 142 W/m2
10:02 66 °F /  18.9 °C 58.6 °F /  14.8 °C 29.7in /  1004.7hPa Calm   6mph /  9.7km/h 77% 0in /  0.0mm 127 W/m2
10:07 65.8 °F /  18.8 °C 58.1 °F /  14.5 °C 29.7in /  1004.7hPa East 2mph /  3.2km/h 3mph /  4.8km/h 76% 0in /  0.0mm 127 W/m2
10:12 65.8 °F /  18.8 °C 58.5 °F /  14.7 °C 29.7in /  1004.7hPa ESE 2.9mph /  4.7km/h 5mph /  8km/h 77% 0in /  0.0mm 160 W/m2
10:17 65.8 °F /  18.8 °C 58.5 °F /  14.7 °C 29.7in /  1004.7hPa ESE 0.9mph /  1.4km/h 4mph /  6.4km/h 77% 0in /  0.0mm 181 W/m2
10:22 65.8 °F /  18.8 °C 58.5 °F /  14.7 °C 29.7in /  1004.7hPa Calm     77% 0in /  0.0mm 193 W/m2
10:27 66.2 °F /  19 °C 59.2 °F /  15.1 °C 29.7in /  1004.7hPa ESE 4mph /  6.4km/h 6mph /  9.7km/h 78% 0in /  0.0mm 200 W/m2
10:32 66.4 °F /  19.1 °C 58.6 °F /  14.8 °C 29.7in /  1004.7hPa Calm   4mph /  6.4km/h 76% 0in /  0.0mm 211 W/m2
10:37 66.6 °F /  19.2 °C 58.8 °F /  14.9 °C 29.7in /  1004.7hPa Calm   6mph /  9.7km/h 76% 0in /  0.0mm 260 W/m2
10:42 66.7 °F /  19.3 °C 59 °F /  15 °C 29.7in /  1005.1hPa SSE 0.9mph /  1.4km/h 2mph /  3.2km/h 76% 0in /  0.0mm 207 W/m2
10:47 66.9 °F /  19.4 °C 58.8 °F /  14.9 °C 29.7in /  1005.1hPa NE 2.9mph /  4.7km/h 3mph /  4.8km/h 75% 0in /  0.0mm 192 W/m2
10:52 67.1 °F /  19.5 °C 58.8 °F /  14.9 °C 29.7in /  1004.7hPa NNE 2.9mph /  4.7km/h 3mph /  4.8km/h 75% 0in /  0.0mm 171 W/m2
10:57 67.3 °F /  19.6 °C 59 °F /  15 °C 29.7in /  1004.7hPa North 2mph /  3.2km/h 3mph /  4.8km/h 75% 0in /  0.0mm 190 W/m2
11:02 67.3 °F /  19.6 °C 59 °F /  15 °C 29.7in /  1004.7hPa NE 0.9mph /  1.4km/h 2mph /  3.2km/h 75% 0in /  0.0mm 304 W/m2
11:07 67.6 °F /  19.8 °C 59 °F /  15 °C 29.7in /  1005.1hPa NE 2.9mph /  4.7km/h 4mph /  6.4km/h 74% 0in /  0.0mm 373 W/m2
11:12 68.2 °F /  20.1 °C 59.2 °F /  15.1 °C 29.7in /  1004.7hPa NW 0.9mph /  1.4km/h 2mph /  3.2km/h 73% 0in /  0.0mm 341 W/m2
11:17 68.5 °F /  20.3 °C 59.5 °F /  15.3 °C 29.7in /  1004.7hPa Calm   4mph /  6.4km/h 73% 0in /  0.0mm 364 W/m2
11:22 68.9 °F /  20.5 °C 59.5 °F /  15.3 °C 29.7in /  1005.1hPa SE 0.9mph /  1.4km/h 2mph /  3.2km/h 72% 0in /  0.0mm 473 W/m2
11:27 69.3 °F /  20.7 °C 59.9 °F /  15.5 °C 29.7in /  1005.1hPa SW 0.9mph /  1.4km/h 1mph /  1.6km/h 72% 0in /  0.0mm 380 W/m2
11:32 69.4 °F /  20.8 °C 60.1 °F /  15.6 °C 29.7in /  1005.1hPa Calm   4mph /  6.4km/h 72% 0in /  0.0mm 323 W/m2
11:37 69.4 °F /  20.8 °C 60.1 °F /  15.6 °C 29.7in /  1005.1hPa Calm   2mph /  3.2km/h 72% 0in /  0.0mm 397 W/m2
11:42 70 °F /  21.1 °C 60.6 °F /  15.9 °C 29.7in /  1005.1hPa East 2mph /  3.2km/h 4mph /  6.4km/h 72% 0in /  0.0mm 436 W/m2
11:47 70 °F /  21.1 °C 59.7 °F /  15.4 °C 29.7in /  1004.7hPa West 0.9mph /  1.4km/h 2mph /  3.2km/h 70% 0in /  0.0mm 432 W/m2
11:52 69.8 °F /  21 °C 59.9 °F /  15.5 °C 29.7in /  1004.7hPa East 2mph /  3.2km/h 4mph /  6.4km/h 71% 0in /  0.0mm 420 W/m2
11:57 70 °F /  21.1 °C 60.1 °F /  15.6 °C 29.7in /  1004.7hPa ESE 0.9mph /  1.4km/h 2mph /  3.2km/h 71% 0in /  0.0mm 461 W/m2
12:02 70.2 °F /  21.2 °C 60.3 °F /  15.7 °C 29.7in /  1004.7hPa West 2mph /  3.2km/h 3mph /  4.8km/h 71% 0in /  0.0mm 457 W/m2
12:07 70.3 °F /  21.3 °C 60.1 °F /  15.6 °C 29.7in /  1004.7hPa NNE 0.9mph /  1.4km/h 3mph /  4.8km/h 70% 0in /  0.0mm 524 W/m2
12:12 70.5 °F /  21.4 °C 60.3 °F /  15.7 °C 29.7in /  1004.7hPa SE 0.9mph /  1.4km/h 1mph /  1.6km/h 70% 0in /  0.0mm 504 W/m2
12:17 70.9 °F /  21.6 °C 59.7 °F /  15.4 °C 29.7in /  1004.4hPa ENE 2mph /  3.2km/h 3mph /  4.8km/h 68% 0in /  0.0mm 436 W/m2
12:22 70.9 °F /  21.6 °C 59.4 °F /  15.2 °C 29.7in /  1004.4hPa SSE 2mph /  3.2km/h 3mph /  4.8km/h 67% 0in /  0.0mm 338 W/m2
12:27 71.1 °F /  21.7 °C 59.9 °F /  15.5 °C 29.7in /  1004.4hPa SE 0.9mph /  1.4km/h 3mph /  4.8km/h 68% 0in /  0.0mm 250 W/m2
12:32 70.9 °F /  21.6 °C 60.3 °F /  15.7 °C 29.7in /  1004.1hPa Calm   2mph /  3.2km/h 69% 0in /  0.0mm 218 W/m2
12:37 70.7 °F /  21.5 °C 59.5 °F /  15.3 °C 29.7in /  1004.1hPa NE 2mph /  3.2km/h 2mph /  3.2km/h 68% 0in /  0.0mm 188 W/m2
12:42 70.5 °F /  21.4 °C 59.4 °F /  15.2 °C 29.7in /  1004.1hPa NNW 0.9mph /  1.4km/h 4mph /  6.4km/h 68% 0in /  0.0mm 181 W/m2
12:47 70.5 °F /  21.4 °C 59.4 °F /  15.2 °C 29.7in /  1004.1hPa East 2mph /  3.2km/h 2mph /  3.2km/h 68% 0in /  0.0mm 188 W/m2
12:53 70.3 °F /  21.3 °C 59.7 °F /  15.4 °C 29.7in /  1004.1hPa NNW 0.9mph /  1.4km/h 3mph /  4.8km/h 69% 0in /  0.0mm 236 W/m2
12:58 70.5 °F /  21.4 °C 61 °F /  16.1 °C 29.7in /  1004.1hPa Calm   3mph /  4.8km/h 72% 0in /  0.0mm 250 W/m2
13:03 70.5 °F /  21.4 °C 60.3 °F /  15.7 °C 29.7in /  1004.1hPa ENE 0.9mph /  1.4km/h 2mph /  3.2km/h 70% 0in /  0.0mm 209 W/m2
13:08 70.9 °F /  21.6 °C 60.3 °F /  15.7 °C 29.7in /  1004.1hPa Calm   2mph /  3.2km/h 69% 0in /  0.0mm 202 W/m2
13:13 71.1 °F /  21.7 °C 60.4 °F /  15.8 °C 29.7in /  1004.1hPa ENE 0.9mph /  1.4km/h 4mph /  6.4km/h 69% 0in /  0.0mm 223 W/m2
13:18 71.1 °F /  21.7 °C 60.4 °F /  15.8 °C 29.7in /  1004.1hPa East 0.9mph /  1.4km/h 3mph /  4.8km/h 69% 0in /  0.0mm 269 W/m2
13:23 71.2 °F /  21.8 °C 60.6 °F /  15.9 °C 29.7in /  1004.1hPa Calm   4mph /  6.4km/h 69% 0in /  0.0mm 355 W/m2
13:28 71.8 °F /  22.1 °C 61 °F /  16.1 °C 29.7in /  1004.1hPa West 0.9mph /  1.4km/h 2mph /  3.2km/h 69% 0in /  0.0mm 425 W/m2
13:33 72.1 °F /  22.3 °C 60.6 °F /  15.9 °C 29.7in /  1004.1hPa WNW 0.9mph /  1.4km/h 3mph /  4.8km/h 67% 0in /  0.0mm 552 W/m2
13:38 72.7 °F /  22.6 °C 61.2 °F /  16.2 °C 29.7in /  1004.1hPa WNW 0.9mph /  1.4km/h 3mph /  4.8km/h 67% 0in /  0.0mm 624 W/m2
13:43 73 °F /  22.8 °C 60.6 °F /  15.9 °C 29.6in /  1003.7hPa NE 0.9mph /  1.4km/h 3mph /  4.8km/h 65% 0in /  0.0mm 299 W/m2
13:48 73.2 °F /  22.9 °C 61.2 °F /  16.2 °C 29.6in /  1003.7hPa ESE 0.9mph /  1.4km/h 2mph /  3.2km/h 66% 0in /  0.0mm 357 W/m2
13:53 73.2 °F /  22.9 °C 60.3 °F /  15.7 °C 29.6in /  1003.7hPa East 0.9mph /  1.4km/h 2mph /  3.2km/h 64% 0in /  0.0mm 369 W/m2
13:58 73.6 °F /  23.1 °C 60.6 °F /  15.9 °C 29.6in /  1003.7hPa WNW 2mph /  3.2km/h 3mph /  4.8km/h 64% 0in /  0.0mm 334 W/m2
14:03 73.4 °F /  23 °C 60.1 °F /  15.6 °C 29.6in /  1003.7hPa East 0.9mph /  1.4km/h 2mph /  3.2km/h 63% 0in /  0.0mm 348 W/m2
14:08 73.8 °F /  23.2 °C 61.3 °F /  16.3 °C 29.6in /  1003.7hPa Calm   2mph /  3.2km/h 65% 0in /  0.0mm 499 W/m2
14:14 73.9 °F /  23.3 °C 60.6 °F /  15.9 °C 29.6in /  1003.7hPa ENE 2mph /  3.2km/h 2mph /  3.2km/h 63% 0in /  0.0mm 392 W/m2
14:19 73.9 °F /  23.3 °C 60.1 °F /  15.6 °C 29.6in /  1003.7hPa East 2mph /  3.2km/h 3mph /  4.8km/h 62% 0in /  0.0mm 441 W/m2
14:24 74.1 °F /  23.4 °C 61.2 °F /  16.2 °C 29.6in /  1003.7hPa West 2mph /  3.2km/h 2mph /  3.2km/h 64% 0in /  0.0mm 522 W/m2
14:29 74.5 °F /  23.6 °C 61 °F /  16.1 °C 29.6in /  1003.7hPa ESE 2mph /  3.2km/h 2mph /  3.2km/h 63% 0in /  0.0mm 394 W/m2
14:34 74.7 °F /  23.7 °C 60.8 °F /  16 °C 29.6in /  1003.7hPa NE 0.9mph /  1.4km/h 2mph /  3.2km/h 62% 0in /  0.0mm 316 W/m2
14:39 74.7 °F /  23.7 °C 60.3 °F /  15.7 °C 29.6in /  1003.4hPa WNW 0.9mph /  1.4km/h 3mph /  4.8km/h 61% 0in /  0.0mm 327 W/m2
14:44 74.5 °F /  23.6 °C 60.6 °F /  15.9 °C 29.6in /  1003.4hPa North 2mph /  3.2km/h 5mph /  8km/h 62% 0in /  0.0mm 392 W/m2
14:49 74.3 °F /  23.5 °C 60.8 °F /  16 °C 29.6in /  1003.0hPa Calm   2mph /  3.2km/h 63% 0in /  0.0mm 366 W/m2
14:54 74.5 °F /  23.6 °C 61.5 °F /  16.4 °C 29.6in /  1003.0hPa West 2.9mph /  4.7km/h 4mph /  6.4km/h 64% 0in /  0.0mm 434 W/m2
14:59 74.7 °F /  23.7 °C 61.7 °F /  16.5 °C 29.6in /  1002.7hPa North 4mph /  6.4km/h 6mph /  9.7km/h 64% 0in /  0.0mm 603 W/m2
15:04 75 °F /  23.9 °C 61.2 °F /  16.2 °C 29.6in /  1002.7hPa North 0.9mph /  1.4km/h 3mph /  4.8km/h 62% 0in /  0.0mm 527 W/m2
15:09 75.4 °F /  24.1 °C 61.5 °F /  16.4 °C 29.6in /  1003.0hPa ESE 2.9mph /  4.7km/h 4mph /  6.4km/h 62% 0in /  0.0mm 308 W/m2
15:14 75.2 °F /  24 °C 61.3 °F /  16.3 °C 29.6in /  1003.0hPa NW 0.9mph /  1.4km/h 3mph /  4.8km/h 62% 0in /  0.0mm 330 W/m2
15:19 75.4 °F /  24.1 °C 61.9 °F /  16.6 °C 29.6in /  1003.0hPa WNW 2mph /  3.2km/h 3mph /  4.8km/h 63% 0in /  0.0mm 696 W/m2
15:24 75.4 °F /  24.1 °C 61.9 °F /  16.6 °C 29.6in /  1002.7hPa NW 0.9mph /  1.4km/h 3mph /  4.8km/h 63% 0in /  0.0mm 487 W/m2
15:29 75.6 °F /  24.2 °C 61.7 °F /  16.5 °C 29.6in /  1003.0hPa West 2mph /  3.2km/h 5mph /  8km/h 62% 0in /  0.0mm 594 W/m2
15:34 75.7 °F /  24.3 °C 62.2 °F /  16.8 °C 29.6in /  1003.0hPa East 2.9mph /  4.7km/h 3mph /  4.8km/h 63% 0in /  0.0mm 378 W/m2
15:39 75.9 °F /  24.4 °C 61.9 °F /  16.6 °C 29.6in /  1003.0hPa Calm   3mph /  4.8km/h 62% 0in /  0.0mm 353 W/m2
15:44 75.9 °F /  24.4 °C 61.9 °F /  16.6 °C 29.6in /  1002.7hPa WNW 4.9mph /  7.9km/h 5mph /  8km/h 62% 0in /  0.0mm 334 W/m2
15:49 75.7 °F /  24.3 °C 61.9 °F /  16.6 °C 29.6in /  1003.0hPa NW 0.9mph /  1.4km/h 3mph /  4.8km/h 62% 0in /  0.0mm 392 W/m2
15:54 75.7 °F /  24.3 °C 61.9 °F /  16.6 °C 29.6in /  1003.0hPa NNW 0.9mph /  1.4km/h 3mph /  4.8km/h 62% 0in /  0.0mm 302 W/m2
15:59 75.9 °F /  24.4 °C 61.9 °F /  16.6 °C 29.6in /  1003.0hPa West 4mph /  6.4km/h 5mph /  8km/h 62% 0in /  0.0mm 220 W/m2
16:04 75.7 °F /  24.3 °C 62.8 °F /  17.1 °C 29.6in /  1003.0hPa West 2.9mph /  4.7km/h 4mph /  6.4km/h 64% 0in /  0.0mm 285 W/m2
16:09 75.7 °F /  24.3 °C 62.2 °F /  16.8 °C 29.6in /  1003.0hPa WSW 2.9mph /  4.7km/h 4mph /  6.4km/h 63% 0in /  0.0mm 248 W/m2
16:14 75.6 °F /  24.2 °C 62.6 °F /  17 °C 29.6in /  1003.0hPa WSW 4mph /  6.4km/h 5mph /  8km/h 64% 0in /  0.0mm 213 W/m2
16:19 75.4 °F /  24.1 °C 61.9 °F /  16.6 °C 29.6in /  1003.0hPa WSW 6.9mph /  11.1km/h 7mph /  11.3km/h 63% 0in /  0.0mm 216 W/m2
16:24 75.4 °F /  24.1 °C 61.5 °F /  16.4 °C 29.6in /  1003.0hPa WSW 2.9mph /  4.7km/h 4mph /  6.4km/h 62% 0in /  0.0mm 183 W/m2
16:29 75.4 °F /  24.1 °C 61.9 °F /  16.6 °C 29.6in /  1003.0hPa West 2.9mph /  4.7km/h 5mph /  8km/h 63% 0in /  0.0mm 153 W/m2
16:34 75 °F /  23.9 °C 62.4 °F /  16.9 °C 29.6in /  1003.0hPa WNW 2.9mph /  4.7km/h 4mph /  6.4km/h 65% 0in /  0.0mm 149 W/m2
16:39 74.8 °F /  23.8 °C 62.2 °F /  16.8 °C 29.6in /  1003.0hPa West 2.9mph /  4.7km/h 5mph /  8km/h 65% 0in /  0.0mm 192 W/m2
16:45 74.7 °F /  23.7 °C 62.6 °F /  17 °C 29.6in /  1003.0hPa WNW 4.9mph /  7.9km/h 8mph /  12.9km/h 66% 0in /  0.0mm 190 W/m2
16:50 74.3 °F /  23.5 °C 62.2 °F /  16.8 °C 29.6in /  1003.0hPa WNW 4.9mph /  7.9km/h 9mph /  14.5km/h 66% 0in /  0.0mm 185 W/m2
16:55 73.8 °F /  23.2 °C 62.6 °F /  17 °C 29.6in /  1003.0hPa WNW 6mph /  9.7km/h 12mph /  19.3km/h 68% 0in /  0.0mm 193 W/m2
17:00 73.2 °F /  22.9 °C 63.3 °F /  17.4 °C 29.6in /  1003.4hPa West 6mph /  9.7km/h 10mph /  16.1km/h 71% 0in /  0.0mm 271 W/m2
17:05 72.3 °F /  22.4 °C 63.1 °F /  17.3 °C 29.6in /  1003.4hPa West 8.1mph /  13km/h 14mph /  22.5km/h 73% 0in /  0.0mm 376 W/m2
17:10 72 °F /  22.2 °C 63.7 °F /  17.6 °C 29.6in /  1003.0hPa NW 4mph /  6.4km/h 8mph /  12.9km/h 75% 0in /  0.0mm 338 W/m2
17:15 71.8 °F /  22.1 °C 63.5 °F /  17.5 °C 29.6in /  1003.0hPa WSW 10.1mph /  16.3km/h 11mph /  17.7km/h 75% 0in /  0.0mm 272 W/m2
17:20 71.4 °F /  21.9 °C 62.8 °F /  17.1 °C 29.6in /  1003.0hPa WNW 8.1mph /  13km/h 12mph /  19.3km/h 74% 0in /  0.0mm 265 W/m2
17:25 71.4 °F /  21.9 °C 63.1 °F /  17.3 °C 29.6in /  1003.0hPa West 8.1mph /  13km/h 15mph /  24.1km/h 75% 0in /  0.0mm 274 W/m2
17:30 71.4 °F /  21.9 °C 63.1 °F /  17.3 °C 29.6in /  1003.0hPa West 2.9mph /  4.7km/h 11mph /  17.7km/h 75% 0in /  0.0mm 262 W/m2
17:35 71.8 °F /  22.1 °C 63.9 °F /  17.7 °C 29.6in /  1003.0hPa WNW 2.9mph /  4.7km/h 13mph /  20.9km/h 76% 0in /  0.0mm 399 W/m2
17:40 72 °F /  22.2 °C 63.7 °F /  17.6 °C 29.6in /  1003.0hPa West 8.9mph /  14.3km/h 10mph /  16.1km/h 75% 0in /  0.0mm 288 W/m2
17:45 72.1 °F /  22.3 °C 63 °F /  17.2 °C 29.6in /  1003.0hPa West 8.1mph /  13km/h 13mph /  20.9km/h 73% 0in /  0.0mm 492 W/m2
17:50 72.5 °F /  22.5 °C 63.3 °F /  17.4 °C 29.6in /  1003.0hPa WNW 11mph /  17.7km/h 13mph /  20.9km/h 73% 0in /  0.0mm 622 W/m2
17:55 72.7 °F /  22.6 °C 63.1 °F /  17.3 °C 29.6in /  1003.0hPa WNW 8.1mph /  13km/h 12mph /  19.3km/h 72% 0in /  0.0mm 745 W/m2
18:00 72.7 °F /  22.6 °C 62.8 °F /  17.1 °C 29.6in /  1003.0hPa West 6mph /  9.7km/h 12mph /  19.3km/h 71% 0in /  0.0mm 306 W/m2
18:05 72.1 °F /  22.3 °C 62.6 °F /  17 °C 29.6in /  1003.4hPa SW 12.1mph /  19.5km/h 12mph /  19.3km/h 72% 0in /  0.0mm 237 W/m2
18:10 71.4 °F /  21.9 °C 62.2 °F /  16.8 °C 29.6in /  1003.4hPa West 10.1mph /  16.3km/h 15mph /  24.1km/h 73% 0in /  0.0mm 204 W/m2
18:15 70.7 °F /  21.5 °C 61.2 °F /  16.2 °C 29.6in /  1003.4hPa West 6mph /  9.7km/h 15mph /  24.1km/h 72% 0in /  0.0mm 186 W/m2
18:20 70.2 °F /  21.2 °C 60.3 °F /  15.7 °C 29.6in /  1003.4hPa WSW 8.9mph /  14.3km/h 11mph /  17.7km/h 71% 0in /  0.0mm 137 W/m2
18:25 69.4 °F /  20.8 °C 60.1 °F /  15.6 °C 29.6in /  1003.4hPa West 6.9mph /  11.1km/h 15mph /  24.1km/h 72% 0in /  0.0mm 116 W/m2
18:30 69.1 °F /  20.6 °C 60.4 °F /  15.8 °C 29.6in /  1003.0hPa SW 8.9mph /  14.3km/h 10mph /  16.1km/h 74% 0in /  0.0mm 53 W/m2
18:35 68.5 °F /  20.3 °C 59.9 °F /  15.5 °C 29.6in /  1003.4hPa WSW 4.9mph /  7.9km/h 13mph /  20.9km/h 74% 0in /  0.0mm 23 W/m2
18:41 68.2 °F /  20.1 °C 59.5 °F /  15.3 °C 29.6in /  1003.7hPa WNW 6.9mph /  11.1km/h 15mph /  24.1km/h 74% 0in /  0.0mm 11 W/m2
18:46 67.6 °F /  19.8 °C 58.3 °F /  14.6 °C 29.7in /  1004.7hPa West 6.9mph /  11.1km/h 15mph /  24.1km/h 72% 0in /  0.0mm 5 W/m2
18:51 67.3 °F /  19.6 °C 58.3 °F /  14.6 °C 29.7in /  1005.1hPa WNW 13mph /  20.9km/h 13mph /  20.9km/h 73% 0in /  0.0mm 0 W/m2
18:56 65.5 °F /  18.6 °C 58.5 °F /  14.7 °C 29.7in /  1005.1hPa WSW 19.9mph /  32km/h 20mph /  32.2km/h 78% 0.13in /  3.3mm 0 W/m2
19:01 62.8 °F /  17.1 °C 58.3 °F /  14.6 °C 29.7in /  1005.4hPa WNW 6.9mph /  11.1km/h 14mph /  22.5km/h 85% 0.26in /  6.6mm 5 W/m2
19:06 61.3 °F /  16.3 °C 57.7 °F /  14.3 °C 29.6in /  1003.7hPa WNW 8.1mph /  13km/h 24mph /  38.6km/h 88% 0.39in /  9.9mm 23 W/m2
19:11 60.6 °F /  15.9 °C 57.7 °F /  14.3 °C 29.6in /  1003.7hPa WSW 11mph /  17.7km/h 12mph /  19.3km/h 90% 0.39in /  9.9mm 39 W/m2
19:16 60.1 °F /  15.6 °C 57.2 °F /  14 °C 29.7in /  1004.1hPa WNW 6mph /  9.7km/h 14mph /  22.5km/h 90% 0.4in /  10.2mm 42 W/m2
19:21 59.9 °F /  15.5 °C 57.2 °F /  14 °C 29.7in /  1004.1hPa West 8.1mph /  13km/h 12mph /  19.3km/h 91% 0.4in /  10.2mm 44 W/m2
19:26 59.7 °F /  15.4 °C 57.4 °F /  14.1 °C 29.7in /  1004.4hPa West 4mph /  6.4km/h 13mph /  20.9km/h 92% 0.4in /  10.2mm 53 W/m2
19:31 59.9 °F /  15.5 °C 57.6 °F /  14.2 °C 29.7in /  1004.4hPa NW 4mph /  6.4km/h 9mph /  14.5km/h 92% 0.4in /  10.2mm 98 W/m2
19:36 60.3 °F /  15.7 °C 57.9 °F /  14.4 °C 29.7in /  1004.4hPa WSW 6.9mph /  11.1km/h 11mph /  17.7km/h 92% 0.4in /  10.2mm 81 W/m2
19:41 60.3 °F /  15.7 °C 57.9 °F /  14.4 °C 29.7in /  1004.4hPa NNW 4mph /  6.4km/h 10mph /  16.1km/h 92% 0.4in /  10.2mm 76 W/m2
19:46 60.1 °F /  15.6 °C 57.7 °F /  14.3 °C 29.7in /  1004.4hPa West 4mph /  6.4km/h 6mph /  9.7km/h 92% 0.4in /  10.2mm 70 W/m2
19:51 60.1 °F /  15.6 °C 57.7 °F /  14.3 °C 29.7in /  1004.4hPa WNW 4.9mph /  7.9km/h 9mph /  14.5km/h 92% 0.4in /  10.2mm 63 W/m2
19:56 60.1 °F /  15.6 °C 57.7 °F /  14.3 °C 29.7in /  1004.1hPa West 6mph /  9.7km/h 9mph /  14.5km/h 92% 0.24in /  6.1mm 53 W/m2
20:01 60.1 °F /  15.6 °C 57.7 °F /  14.3 °C 29.7in /  1004.4hPa WSW 6.9mph /  11.1km/h 7mph /  11.3km/h 92% 0.13in /  3.3mm 30 W/m2
20:06 60.1 °F /  15.6 °C 57.4 °F /  14.1 °C 29.7in /  1004.4hPa WNW 2.9mph /  4.7km/h 6mph /  9.7km/h 91% 0.01in /  0.2mm 42 W/m2
20:11 60.1 °F /  15.6 °C 57.4 °F /  14.1 °C 29.7in /  1004.7hPa West 4mph /  6.4km/h 8mph /  12.9km/h 91% 0.01in /  0.2mm 42 W/m2
20:16 60.1 °F /  15.6 °C 57.4 °F /  14.1 °C 29.7in /  1005.1hPa SW 0.9mph /  1.4km/h 2mph /  3.2km/h 91% 0in /  0.0mm 25 W/m2
20:21 60.1 °F /  15.6 °C 57.4 °F /  14.1 °C 29.7in /  1005.8hPa Calm   6mph /  9.7km/h 91% 0in /  0.0mm 14 W/m2
20:26 59.9 °F /  15.5 °C 57.2 °F /  14 °C 29.7in /  1005.8hPa WSW 4.9mph /  7.9km/h 6mph /  9.7km/h 91% 0in /  0.0mm 12 W/m2
20:31 59.9 °F /  15.5 °C 57.6 °F /  14.2 °C 29.7in /  1005.1hPa WNW 4.9mph /  7.9km/h 8mph /  12.9km/h 92% 0in /  0.0mm 18 W/m2
20:36 59.9 °F /  15.5 °C 57.6 °F /  14.2 °C 29.7in /  1004.7hPa West 8.1mph /  13km/h 8mph /  12.9km/h 92% 0in /  0.0mm 19 W/m2
20:41 59.7 °F /  15.4 °C 57.4 °F /  14.1 °C 29.7in /  1004.4hPa NW 0.9mph /  1.4km/h 5mph /  8km/h 92% 0in /  0.0mm 14 W/m2
20:46 59.7 °F /  15.4 °C 57.4 °F /  14.1 °C 29.7in /  1004.4hPa WSW 2mph /  3.2km/h 6mph /  9.7km/h 92% 0in /  0.0mm 12 W/m2
20:52 59.5 °F /  15.3 °C 57.2 °F /  14 °C 29.7in /  1004.7hPa WSW 0.9mph /  1.4km/h 1mph /  1.6km/h 92% 0in /  0.0mm 9 W/m2
20:57 59.4 °F /  15.2 °C 57 °F /  13.9 °C 29.7in /  1004.7hPa WSW 2.9mph /  4.7km/h 4mph /  6.4km/h 92% 0in /  0.0mm 5 W/m2
21:02 59.4 °F /  15.2 °C 57.4 °F /  14.1 °C 29.7in /  1004.7hPa West 2.9mph /  4.7km/h 4mph /  6.4km/h 93% 0in /  0.0mm 0 W/m2
21:07 59.2 °F /  15.1 °C 57.2 °F /  14 °C 29.7in /  1005.4hPa West 2mph /  3.2km/h 4mph /  6.4km/h 93% 0in /  0.0mm 0 W/m2
21:12 59.2 °F /  15.1 °C 56.8 °F /  13.8 °C 29.7in /  1005.8hPa West 4mph /  6.4km/h 9mph /  14.5km/h 92% 0in /  0.0mm 0 W/m2
21:17 59.4 °F /  15.2 °C 57 °F /  13.9 °C 29.7in /  1005.8hPa WNW 2mph /  3.2km/h 3mph /  4.8km/h 92% 0in /  0.0mm 0 W/m2
21:22 59.2 °F /  15.1 °C 56.8 °F /  13.8 °C 29.7in /  1005.8hPa WSW 0.9mph /  1.4km/h 7mph /  11.3km/h 92% 0in /  0.0mm 0 W/m2
21:27 59.2 °F /  15.1 °C 56.8 °F /  13.8 °C 29.7in /  1005.4hPa NNW 0.9mph /  1.4km/h 2mph /  3.2km/h 92% 0in /  0.0mm 0 W/m2
21:32 59.4 °F /  15.2 °C 57 °F /  13.9 °C 29.7in /  1005.4hPa Calm   1mph /  1.6km/h 92% 0in /  0.0mm 0 W/m2
21:37 59.4 °F /  15.2 °C 57 °F /  13.9 °C 29.7in /  1005.4hPa WNW 2.9mph /  4.7km/h 4mph /  6.4km/h 92% 0in /  0.0mm 0 W/m2
21:42 59.2 °F /  15.1 °C 57.2 °F /  14 °C 29.7in /  1005.4hPa Calm   2mph /  3.2km/h 93% 0in /  0.0mm 0 W/m2
21:47 59.2 °F /  15.1 °C 57.2 °F /  14 °C 29.7in /  1005.8hPa Calm   4mph /  6.4km/h 93% 0in /  0.0mm 0 W/m2
21:52 58.8 °F /  14.9 °C 56.8 °F /  13.8 °C 29.7in /  1005.4hPa Calm     93% 0in /  0.0mm 0 W/m2
21:57 58.8 °F /  14.9 °C 56.8 °F /  13.8 °C 29.7in /  1005.8hPa Calm     93% 0in /  0.0mm 0 W/m2
22:02 58.6 °F /  14.8 °C 56.8 °F /  13.8 °C 29.7in /  1005.8hPa SSW 0.9mph /  1.4km/h 2mph /  3.2km/h 94% 0in /  0.0mm 0 W/m2
22:07 58.6 °F /  14.8 °C 56.8 °F /  13.8 °C 29.7in /  1006.1hPa Calm     94% 0in /  0.0mm 0 W/m2
22:12 58.6 °F /  14.8 °C 56.8 °F /  13.8 °C 29.7in /  1005.8hPa SW 2mph /  3.2km/h 2mph /  3.2km/h 94% 0in /  0.0mm 0 W/m2
22:17 58.5 °F /  14.7 °C 56.7 °F /  13.7 °C 29.7in /  1005.8hPa West 2mph /  3.2km/h 4mph /  6.4km/h 94% 0in /  0.0mm 0 W/m2
22:22 58.3 °F /  14.6 °C 56.5 °F /  13.6 °C 29.7in /  1006.1hPa Calm     94% 0in /  0.0mm 0 W/m2
22:27 58.3 °F /  14.6 °C 56.5 °F /  13.6 °C 29.7in /  1006.4hPa Calm     94% 0in /  0.0mm 0 W/m2
22:32 58.3 °F /  14.6 °C 56.8 °F /  13.8 °C 29.7in /  1006.4hPa Calm     95% 0in /  0.0mm 0 W/m2
22:37 58.3 °F /  14.6 °C 56.8 °F /  13.8 °C 29.7in /  1006.8hPa WSW 0.9mph /  1.4km/h 2mph /  3.2km/h 95% 0in /  0.0mm 0 W/m2
22:42 58.5 °F /  14.7 °C 57 °F /  13.9 °C 29.7in /  1007.1hPa ESE 0.9mph /  1.4km/h 2mph /  3.2km/h 95% 0.01in /  0.2mm 0 W/m2
22:47 58.5 °F /  14.7 °C 57 °F /  13.9 °C 29.8in /  1008.1hPa Calm     95% 0.01in /  0.2mm 0 W/m2
22:52 58.5 °F /  14.7 °C 57 °F /  13.9 °C 29.8in /  1008.5hPa North 2mph /  3.2km/h 3mph /  4.8km/h 95% 0.02in /  0.5mm 0 W/m2
22:57 58.5 °F /  14.7 °C 57 °F /  13.9 °C 29.8in /  1008.1hPa North 2.9mph /  4.7km/h 3mph /  4.8km/h 95% 0.06in /  1.5mm 0 W/m2
23:02 58.5 °F /  14.7 °C 57 °F /  13.9 °C 29.8in /  1007.8hPa NNE 0.9mph /  1.4km/h 4mph /  6.4km/h 95% 0.09in /  2.3mm 0 W/m2
23:07 58.6 °F /  14.8 °C 56.8 °F /  13.8 °C 29.8in /  1007.8hPa West 0.9mph /  1.4km/h 2mph /  3.2km/h 94% 0.13in /  3.3mm 0 W/m2
23:12 58.6 °F /  14.8 °C 56.8 °F /  13.8 °C 29.8in /  1007.8hPa West 2mph /  3.2km/h 3mph /  4.8km/h 94% 0.17in /  4.3mm 0 W/m2
23:17 58.5 °F /  14.7 °C 56.7 °F /  13.7 °C 29.8in /  1007.8hPa Calm   2mph /  3.2km/h 94% 0.19in /  4.8mm 0 W/m2
23:22 58.5 °F /  14.7 °C 57 °F /  13.9 °C 29.8in /  1008.1hPa SW 2mph /  3.2km/h 3mph /  4.8km/h 95% 0.2in /  5.1mm 0 W/m2
23:27 58.3 °F /  14.6 °C 56.8 °F /  13.8 °C 29.8in /  1007.8hPa West 2mph /  3.2km/h 3mph /  4.8km/h 95% 0.22in /  5.6mm 0 W/m2
23:32 58.3 °F /  14.6 °C 56.8 °F /  13.8 °C 29.8in /  1007.5hPa West 2.9mph /  4.7km/h 3mph /  4.8km/h 95% 0.23in /  5.8mm 0 W/m2
23:37 57.9 °F /  14.4 °C 56.5 °F /  13.6 °C 29.8in /  1007.8hPa WNW 0.9mph /  1.4km/h 2mph /  3.2km/h 95% 0.24in /  6.1mm 0 W/m2
23:42 57.9 °F /  14.4 °C 56.5 °F /  13.6 °C 29.8in /  1008.1hPa ESE 2mph /  3.2km/h 3mph /  4.8km/h 95% 0.24in /  6.1mm 0 W/m2
23:47 58.1 °F /  14.5 °C 56.7 °F /  13.7 °C 29.8in /  1008.8hPa ESE 2mph /  3.2km/h 3mph /  4.8km/h 95% 0.27in /  6.9mm 0 W/m2
23:52 58.1 °F /  14.5 °C 56.7 °F /  13.7 °C 29.8in /  1008.8hPa NNE 0.9mph /  1.4km/h 2mph /  3.2km/h 95% 0.28in /  7.1mm 0 W/m2
23:57 58.1 °F /  14.5 °C 56.7 °F /  13.7 °C 29.8in /  1008.1hPa West 2.9mph /  4.7km/h 3mph /  4.8km/h 95% 0.24in /  6.1mm 0 W/m2
Juneau County Weather
Compliments of Weather Underground - 4 mb